Mukdahan, Thailand

2:11 PM ICT on October 31, 2014 (GMT +0700)
Nakhon Phanom | Change Station
CLOSE
Current Station
Airport
Location: Nakhon Phanom,
Elevation: 584 ft
Nearby Weather Stations

Elev 584 ft 17.38 °N, 104.64 °E | Updated 11 minutes ago

Scattered Clouds
Scattered Clouds
91 °F
Feels Like 98 °F
N
7
Wind Variable Wind from East

Today
High -- | Low -- °F
--% Chance of Precip.
Yesterday
High -- | Low -- °F
Precip. -- in
5:58 AM 5:31 PM
First Quarter, 52% visible
Pressure 29.77 in
Visibility 6.2 miles
Clouds Scattered Clouds 2200 ft
Heat Index 98 °F
Dew Point 72 °F
Humidity 52%
Rainfall 0.00 in
Snow Depth Not available.
UV 6 out of 12
Pollen Not available.
Air Quality Not available.
Flu Activity Not available.
METAR VTUW 310700Z 10006KT 9999 SCT022 33/22 Q1008 A2977 RWY15 INFO G

More Conditions Fewer Conditions

Pressure 29.77 in
Visibility 6.2 miles
Clouds Scattered Clouds 2200 ft
Heat Index 98 °F
Dew Point 72 °F
Humidity 52%
Rainfall 0.00 in
Snow Depth Not available.
UV 6 out of 12
Pollen Not available.
Air Quality Not available.
Flu Activity Not available.
METAR VTUW 310700Z 10006KT 9999 SCT022 33/22 Q1008 A2977 RWY15 INFO G

More Conditions Fewer Conditions

10-Day Weather Forecast

Almanac

Astronomy

Oct. 31, 2014 Rise Set
Actual Time
Civil Twilight
Nautical Twilight
Astronomical Twilight
Moon
Length of Visible Light
Length of Day
Tomorrow will be .
, % of the Moon is Illuminated

Today's Extremes

Country Highs Country Lows

Community

WunderPhotos

Upload Photos

1,766,571 photos uploaded!

WunderBlogs® & News

Nearby

Air Quality

  Air Quality AQ Index Pollutant
Not available.

Snow Depth

Station Depth Elevation

Earthquake Activity

City Distance Mag. Time & Date
Minimum magnitude displayed is 2.5.

Coastal Water Temperatures

Place Temperature

Nearby Weather Stations